Time;durP1;ratioP1;P1;durP2;ratioP2;P2;SDS_P1;SDS_P2;PMS_P1;PMS_P2;Temp;Humidity;BMP_temperature;BMP_pressure;BME280_temperature;BME280_humidity;BME280_pressure;Samples;Min_cycle;Max_cycle;Signal;HPM_P1;HPM_P2
2023/04/10 00:01:05;;;;;;;5.07;3.50;;;;;;;13.01;48.15;101889.34;4990302;28;20054;-81
2023/04/10 00:03:35;;;;;;;6.88;4.10;;;;;;;12.91;48.53;101867.03;4986749;28;20057;-80
2023/04/10 00:06:02;;;;;;;6.53;4.15;;;;;;;13.16;48.74;101907.75;5001968;28;20084;-82
2023/04/10 00:08:29;;;;;;;5.90;3.70;;;;;;;13.03;48.76;101884.75;4984935;28;20045;-82
2023/04/10 00:11:02;;;;;;;8.30;4.38;;;;;;;13.23;48.43;101920.47;4996945;28;20072;-83
2023/04/10 00:13:29;;;;;;;6.20;4.10;;;;;;;13.17;48.95;101909.44;4986192;28;20050;-81
2023/04/10 00:15:58;;;;;;;5.05;4.15;;;;;;;13.00;49.25;101874.31;4998730;28;20141;-80
2023/04/10 00:18:28;;;;;;;5.53;3.53;;;;;;;12.77;49.13;101837.97;4995411;28;20050;-82
2023/04/10 00:21:02;;;;;;;6.45;4.25;;;;;;;13.01;49.48;101881.34;4986089;28;20061;-80
2023/04/10 00:23:31;;;;;;;6.95;4.55;;;;;;;13.00;49.64;101879.63;4979133;28;20050;-81
2023/04/10 00:26:01;;;;;;;6.35;4.43;;;;;;;12.76;49.92;101854.91;4986153;28;20069;-81
2023/04/10 00:28:38;;;;;;;5.88;4.38;;;;;;;12.59;50.34;101841.06;4979106;28;20059;-81
2023/04/10 00:31:12;;;;;;;8.10;4.60;;;;;;;12.67;50.57;101858.28;4970006;28;20050;-80
2023/04/10 00:33:50;;;;;;;5.15;4.07;;;;;;;12.66;51.08;101861.94;4978556;28;20050;-80
2023/04/10 00:36:28;;;;;;;6.35;4.78;;;;;;;12.53;51.53;101849.56;4990503;28;20572;-81
2023/04/10 00:39:06;;;;;;;8.00;4.82;;;;;;;12.58;51.40;101860.72;4963529;28;20133;-82
2023/04/10 00:41:33;;;;;;;8.13;4.40;;;;;;;12.49;51.56;101856.09;4992664;28;20038;-81
2023/04/10 00:44:03;;;;;;;7.22;4.80;;;;;;;12.76;51.02;101873.56;4986920;28;20050;-80
2023/04/10 00:46:44;;;;;;;6.03;4.55;;;;;;;12.76;50.86;101868.22;4979678;28;20068;-81
2023/04/10 00:49:28;;;;;;;5.95;4.45;;;;;;;12.74;51.71;101879.03;4981656;28;20284;-82
2023/04/10 00:52:21;;;;;;;6.28;4.15;;;;;;;12.44;51.63;101836.94;4960334;28;20492;-81
2023/04/10 00:55:06;;;;;;;6.68;4.45;;;;;;;12.56;52.17;101867.13;4966416;28;20108;-80
2023/04/10 00:58:13;;;;;;;5.30;4.32;;;;;;;12.55;52.78;101874.28;4966781;28;20471;-79
2023/04/10 01:01:28;;;;;;;9.55;4.60;;;;;;;12.48;52.65;101870.38;4966051;28;20439;-81
2023/04/10 01:04:12;;;;;;;6.93;4.75;;;;;;;12.45;52.63;101873.28;4924375;28;20046;-82
2023/04/10 01:07:36;;;;;;;7.80;4.95;;;;;;;12.32;52.81;101859.19;4937449;28;20475;-83
2023/04/10 01:11:07;;;;;;;7.55;4.60;;;;;;;12.41;53.42;101879.81;4937761;28;20060;-82
2023/04/10 01:14:29;;;;;;;7.13;5.47;;;;;;;12.35;53.09;101888.25;4912893;29;20142;-84
2023/04/10 01:17:38;;;;;;;5.43;4.18;;;;;;;12.31;53.62;101879.66;4910340;28;20152;-82
2023/04/10 01:20:34;;;;;;;5.95;4.60;;;;;;;12.26;53.65;101886.28;4932612;28;20169;-81
2023/04/10 01:23:31;;;;;;;6.78;5.15;;;;;;;12.18;53.91;101877.09;4910839;28;20054;-80
2023/04/10 01:27:15;;;;;;;5.18;4.60;;;;;;;11.91;53.95;101849.88;4946611;28;20054;-84
2023/04/10 01:29:46;;;;;;;6.53;4.63;;;;;;;12.10;54.07;101882.13;4973903;28;20051;-81
2023/04/10 01:32:40;;;;;;;5.95;4.72;;;;;;;11.75;54.31;101835.03;4953324;28;20042;-80
2023/04/10 01:35:49;;;;;;;6.60;4.68;;;;;;;11.64;53.61;101805.69;4938013;28;20120;-81
2023/04/10 01:38:37;;;;;;;5.78;4.80;;;;;;;11.83;54.04;101836.25;4934691;28;20046;-84
2023/04/10 01:41:32;;;;;;;7.03;5.05;;;;;;;11.58;54.47;101811.47;4949907;28;20042;-79
2023/04/10 01:44:15;;;;;;;5.50;4.68;;;;;;;11.90;54.73;101864.16;4928884;28;20057;-83
2023/04/10 01:46:59;;;;;;;6.28;5.20;;;;;;;11.87;54.38;101864.34;4950687;28;20113;-84
2023/04/10 01:49:52;;;;;;;10.13;5.47;;;;;;;11.55;54.29;101811.69;4940634;28;20046;-82
2023/04/10 01:52:30;;;;;;;8.05;5.28;;;;;;;11.91;54.30;101866.66;4938938;28;20058;-82
2023/04/10 01:55:15;;;;;;;8.98;4.95;;;;;;;11.58;54.71;101822.13;4941658;28;20050;-82
2023/04/10 01:58:20;;;;;;;9.50;5.55;;;;;;;11.89;54.89;101862.44;4949059;28;20469;-78
2023/04/10 02:01:09;;;;;;;6.43;4.60;;;;;;;11.94;54.51;101876.22;4954584;28;20128;-81
2023/04/10 02:03:52;;;;;;;5.40;4.65;;;;;;;11.83;54.87;101857.53;4981816;28;20065;-82
2023/04/10 02:06:44;;;;;;;6.63;5.35;;;;;;;11.50;55.12;101806.72;4982910;28;20603;-82
2023/04/10 02:09:43;;;;;;;6.28;4.95;;;;;;;11.92;55.33;101875.53;4966994;28;20397;-83
2023/04/10 02:12:27;;;;;;;8.55;5.70;;;;;;;11.89;54.63;101881.94;4934332;28;20057;-82
2023/04/10 02:15:04;;;;;;;8.25;5.70;;;;;;;11.63;54.82;101830.59;4959980;28;20519;-82
2023/04/10 02:17:40;;;;;;;7.15;5.68;;;;;;;11.85;55.06;101875.09;4954901;28;20041;-83
2023/04/10 02:20:09;;;;;;;9.07;6.22;;;;;;;11.38;55.50;101806.75;4954086;28;20455;-82
2023/04/10 02:22:43;;;;;;;5.97;5.22;;;;;;;11.77;55.57;101875.66;4958443;28;20088;-80
2023/04/10 02:25:28;;;;;;;8.73;6.60;;;;;;;11.76;55.63;101879.28;4970574;28;20077;-83
2023/04/10 02:28:08;;;;;;;6.50;5.47;;;;;;;11.47;55.21;101830.03;4981306;28;20664;-81
2023/04/10 02:30:47;;;;;;;10.15;5.43;;;;;;;11.68;56.24;101870.19;4978203;28;20585;-82
2023/04/10 02:33:27;;;;;;;6.65;5.68;;;;;;;11.65;56.77;101883.69;4968850;28;20518;-82
2023/04/10 02:36:09;;;;;;;8.02;6.10;;;;;;;11.46;56.03;101861.09;4984087;28;20069;-81
2023/04/10 02:39:04;;;;;;;7.53;5.80;;;;;;;11.49;56.87;101875.97;4971376;28;20418;-82
2023/04/10 02:41:48;;;;;;;8.85;6.35;;;;;;;11.11;57.19;101818.44;4964533;28;20403;-82
2023/04/10 02:44:26;;;;;;;7.18;6.05;;;;;;;11.44;57.67;101878.13;4963243;28;20399;-79
2023/04/10 02:46:59;;;;;;;9.88;6.45;;;;;;;11.42;57.38;101880.03;4980100;28;20073;-80
2023/04/10 02:49:33;;;;;;;8.13;5.97;;;;;;;11.39;57.27;101878.47;4982837;28;20447;-82
2023/04/10 02:52:05;;;;;;;9.15;6.45;;;;;;;11.43;57.22;101879.06;5000337;28;20065;-82
2023/04/10 02:54:33;;;;;;;11.55;6.57;;;;;;;11.20;56.88;101833.72;5005991;28;20053;-82
2023/04/10 02:57:01;;;;;;;8.18;5.53;;;;;;;11.30;56.77;101833.91;4982508;28;20232;-82
2023/04/10 02:59:32;;;;;;;11.15;5.50;;;;;;;11.59;56.62;101871.69;4983930;28;20046;-82
2023/04/10 03:02:01;;;;;;;9.18;5.25;;;;;;;11.65;56.20;101876.56;4984797;28;20046;-82
2023/04/10 03:04:33;;;;;;;11.52;6.03;;;;;;;11.66;55.88;101883.56;4968297;28;20050;-82
2023/04/10 03:07:03;;;;;;;7.18;5.63;;;;;;;11.39;55.83;101848.38;4974280;28;20162;-82
2023/04/10 03:09:30;;;;;;;8.32;5.03;;;;;;;11.54;56.49;101881.81;4961175;28;20582;-81
2023/04/10 03:11:58;;;;;;;7.78;5.97;;;;;;;11.27;57.18;101848.28;4979767;28;20045;-80
2023/04/10 03:14:30;;;;;;;6.13;5.30;;;;;;;11.51;57.11;101890.88;4960443;28;20473;-82
2023/04/10 03:16:59;;;;;;;8.35;5.55;;;;;;;11.51;56.69;101890.03;4978962;28;20408;-84
2023/04/10 03:19:26;;;;;;;7.45;5.60;;;;;;;11.41;57.44;101883.63;4979946;28;20056;-82
2023/04/10 03:21:53;;;;;;;10.05;5.40;;;;;;;11.46;57.16;101889.50;4982950;28;20384;-83
2023/04/10 03:24:21;;;;;;;7.00;5.30;;;;;;;11.23;57.75;101852.09;4958053;28;20147;-81
2023/04/10 03:26:48;;;;;;;7.93;4.78;;;;;;;11.09;57.76;101828.31;4968999;28;20060;-82
2023/04/10 03:29:18;;;;;;;6.43;4.93;;;;;;;11.44;57.95;101888.75;4960803;28;20049;-81
2023/04/10 03:31:45;;;;;;;9.52;5.50;;;;;;;11.42;58.22;101886.19;4962069;28;20065;-82
2023/04/10 03:34:24;;;;;;;7.53;5.38;;;;;;;11.38;57.84;101882.06;4972924;28;20046;-83
2023/04/10 03:36:59;;;;;;;5.97;5.07;;;;;;;11.44;58.23;101894.94;4941203;28;20053;-82
2023/04/10 03:39:34;;;;;;;9.05;5.28;;;;;;;11.36;58.27;101891.09;4942531;28;20264;-82
2023/04/10 03:42:10;;;;;;;10.48;5.50;;;;;;;11.15;57.95;101851.81;4946600;28;20435;-81
2023/04/10 03:44:38;;;;;;;9.10;5.30;;;;;;;11.27;58.05;101871.38;4946379;28;20515;-80
2023/04/10 03:47:10;;;;;;;8.02;4.90;;;;;;;11.16;58.03;101858.81;4970506;28;20058;-81
2023/04/10 03:49:36;;;;;;;7.15;5.35;;;;;;;11.38;58.33;101902.47;4968964;28;20091;-81
2023/04/10 03:52:03;;;;;;;11.15;5.25;;;;;;;11.31;58.91;101894.09;4967658;28;20107;-81
2023/04/10 03:54:32;;;;;;;6.22;5.15;;;;;;;11.22;58.79;101887.63;4968587;28;20062;-80
2023/04/10 03:57:06;;;;;;;8.82;4.95;;;;;;;11.23;59.09;101891.97;4967772;28;20049;-82
2023/04/10 03:59:32;;;;;;;7.55;5.18;;;;;;;11.20;59.03;101897.53;4966475;28;20599;-81
2023/04/10 04:02:09;;;;;;;8.23;5.15;;;;;;;11.00;59.43;101868.88;4977761;28;20066;-82
2023/04/10 04:04:36;;;;;;;7.60;5.90;;;;;;;11.18;59.29;101904.75;4985474;28;20069;-81
2023/04/10 04:07:03;;;;;;;7.57;5.40;;;;;;;11.23;58.64;101907.94;4980771;28;20068;-82
2023/04/10 04:09:33;;;;;;;9.73;4.95;;;;;;;11.02;59.15;101872.22;4983637;28;20057;-81
2023/04/10 04:12:03;;;;;;;7.28;5.75;;;;;;;11.16;58.40;101881.91;4984080;28;20058;-81
2023/04/10 04:14:40;;;;;;;6.60;5.90;;;;;;;11.30;58.92;101914.50;4963402;28;20382;-80
2023/04/10 04:17:10;;;;;;;11.65;6.22;;;;;;;11.23;58.23;101907.94;4963314;28;20433;-81
2023/04/10 04:19:36;;;;;;;6.20;5.57;;;;;;;11.16;58.81;101900.50;4968630;28;20396;-79
2023/04/10 04:22:21;;;;;;;9.80;6.13;;;;;;;11.18;59.15;101915.38;4970094;28;20441;-78
2023/04/10 04:24:51;;;;;;;6.85;5.25;;;;;;;11.08;59.69;101903.72;4983927;28;20392;-81
2023/04/10 04:27:20;;;;;;;8.48;5.93;;;;;;;11.08;60.15;101909.88;4969664;28;20240;-80
2023/04/10 04:29:56;;;;;;;9.68;5.72;;;;;;;11.08;59.40;101920.50;4984649;28;20050;-81
2023/04/10 04:32:28;;;;;;;6.95;5.53;;;;;;;10.64;59.50;101879.28;4978710;28;20484;-81
2023/04/10 04:35:10;;;;;;;6.82;5.57;;;;;;;10.93;59.92;101926.03;4975803;28;20140;-82
2023/04/10 04:37:37;;;;;;;12.95;7.13;;;;;;;10.77;60.40;101921.78;4989105;28;20239;-80
2023/04/10 04:40:04;;;;;;;8.30;5.78;;;;;;;10.78;60.29;101918.19;4983716;28;20042;-80
2023/04/10 04:42:40;;;;;;;9.02;5.78;;;;;;;10.75;60.09;101931.66;4968203;28;20053;-80
2023/04/10 04:45:08;;;;;;;8.02;6.20;;;;;;;10.81;59.99;101941.03;4964007;28;20061;-81
2023/04/10 04:47:37;;;;;;;8.35;5.47;;;;;;;10.68;60.89;101927.75;4966020;28;20061;-81
2023/04/10 04:50:05;;;;;;;6.82;5.45;;;;;;;10.71;60.15;101932.84;4981851;28;20077;-82
2023/04/10 04:52:34;;;;;;;10.50;6.13;;;;;;;10.24;60.65;101859.88;4981845;28;20046;-82
2023/04/10 04:55:00;;;;;;;8.43;5.75;;;;;;;10.63;60.13;101929.81;4984108;28;20141;-83
2023/04/10 04:57:27;;;;;;;8.18;6.18;;;;;;;10.42;60.94;101914.41;4981832;28;20049;-80
2023/04/10 04:59:56;;;;;;;7.88;5.68;;;;;;;10.67;60.54;101956.06;4966942;28;20053;-81
2023/04/10 05:02:23;;;;;;;10.77;5.63;;;;;;;10.67;60.77;101963.19;4985200;28;20049;-81
2023/04/10 05:04:50;;;;;;;10.13;5.40;;;;;;;10.62;60.70;101960.00;4969645;28;20507;-80
2023/04/10 05:07:19;;;;;;;8.35;5.20;;;;;;;10.16;61.00;101878.97;4982237;28;20060;-81
2023/04/10 05:09:52;;;;;;;5.70;5.10;;;;;;;10.46;60.01;101915.91;4986073;28;20435;-81
2023/04/10 05:12:19;;;;;;;6.35;5.50;;;;;;;10.73;60.35;101973.44;4984419;28;20421;-80
2023/04/10 05:14:48;;;;;;;10.10;6.00;;;;;;;10.60;60.97;101968.06;4980460;28;20050;-80
2023/04/10 05:17:15;;;;;;;7.95;5.82;;;;;;;10.57;60.82;101956.81;4967342;28;20050;-79
2023/04/10 05:19:45;;;;;;;7.55;5.55;;;;;;;10.35;60.65;101922.91;4960342;28;20037;-82
2023/04/10 05:22:15;;;;;;;9.00;5.18;;;;;;;10.73;60.05;101972.56;4973220;28;20518;-81
2023/04/10 05:24:44;;;;;;;6.03;4.72;;;;;;;10.47;59.59;101941.50;4974334;28;20080;-81
2023/04/10 05:27:13;;;;;;;9.20;5.30;;;;;;;10.63;59.58;101956.38;4981341;28;20506;-82
2023/04/10 05:29:40;;;;;;;7.15;5.35;;;;;;;10.69;59.81;101983.38;4968612;28;20353;-81
2023/04/10 05:32:10;;;;;;;8.43;5.30;;;;;;;10.29;60.44;101928.59;4981395;28;20050;-79
2023/04/10 05:34:37;;;;;;;7.97;5.55;;;;;;;10.45;60.91;101969.94;4964569;28;20430;-79
2023/04/10 05:37:03;;;;;;;6.78;5.57;;;;;;;10.27;60.46;101931.34;4984187;28;20056;-80
2023/04/10 05:39:39;;;;;;;6.10;5.43;;;;;;;10.62;60.01;101981.25;4966707;28;20046;-79
2023/04/10 05:42:06;;;;;;;6.72;5.53;;;;;;;10.26;60.07;101933.13;4980408;28;20046;-80
2023/04/10 05:44:42;;;;;;;9.63;5.90;;;;;;;10.66;60.24;101998.69;4968202;28;20469;-80
2023/04/10 05:47:09;;;;;;;7.43;5.43;;;;;;;10.65;60.52;101995.16;4985123;28;20220;-81
2023/04/10 05:49:41;;;;;;;;;;;;;;;10.64;61.00;102004.09;4969372;28;20362;-79
2023/04/10 05:52:17;;;;;;;12.75;5.88;;;;;;;10.65;60.34;102000.47;4980987;28;19925;-80
2023/04/10 05:54:44;;;;;;;8.45;5.70;;;;;;;10.66;59.60;101985.41;4980971;28;20077;-81
2023/04/10 05:57:14;;;;;;;9.13;5.70;;;;;;;10.80;59.99;102013.69;4966329;28;20405;-81
2023/04/10 05:59:43;;;;;;;10.70;6.03;;;;;;;10.80;59.03;102006.59;4982819;28;20083;-80
2023/04/10 06:02:10;;;;;;;9.55;6.85;;;;;;;10.43;59.56;101950.59;4966978;28;20459;-79
2023/04/10 06:04:37;;;;;;;7.40;5.70;;;;;;;10.83;59.59;102016.16;4987196;28;20076;-78
2023/04/10 06:07:07;;;;;;;10.35;6.43;;;;;;;10.79;59.67;101998.72;4967005;28;20248;-82
2023/04/10 06:09:36;;;;;;;7.10;6.40;;;;;;;10.75;59.40;101987.44;4954861;28;20065;-81
2023/04/10 06:12:03;;;;;;;11.52;5.93;;;;;;;11.00;58.75;102022.97;4985378;28;20052;-80
2023/04/10 06:14:32;;;;;;;8.18;5.35;;;;;;;11.04;58.84;102013.81;4987177;28;20247;-80
2023/04/10 06:16:59;;;;;;;7.15;5.30;;;;;;;10.72;57.92;101950.47;4974867;28;20064;-81
2023/04/10 06:19:31;;;;;;;8.10;5.65;;;;;;;11.10;58.61;102021.38;5001871;28;20450;-80
2023/04/10 06:21:57;;;;;;;6.55;5.22;;;;;;;11.07;57.33;101997.69;5005360;28;20514;-80
2023/04/10 06:24:31;;;;;;;6.85;5.57;;;;;;;11.27;56.84;102025.53;5002817;28;20053;-81
2023/04/10 06:27:04;;;;;;;6.05;4.85;;;;;;;11.06;56.98;101982.69;5002821;28;20562;-81
2023/04/10 06:29:49;;;;;;;;;;;;;;;;;;;;;
2023/04/10 06:32:22;;;;;;;7.10;5.22;;;;;;;10.85;55.53;101927.44;5001418;28;20057;-81
2023/04/10 06:34:59;;;;;;;4.93;4.40;;;;;;;11.38;55.55;101990.22;4990131;28;20415;-79
2023/04/10 06:37:28;;;;;;;9.65;5.40;;;;;;;11.64;55.76;102029.13;4986350;28;20133;-80
2023/04/10 06:40:15;;;;;;;6.90;5.50;;;;;;;11.11;55.95;101940.69;4982979;28;20351;-82
2023/04/10 06:42:42;;;;;;;7.57;5.00;;;;;;;11.37;55.57;101985.88;4965889;28;20385;-81
2023/04/10 06:45:18;;;;;;;5.75;4.90;;;;;;;11.63;54.75;102000.84;4958413;28;20480;-81
2023/04/10 06:47:48;;;;;;;6.22;5.63;;;;;;;11.54;54.90;101996.16;4974314;28;20435;-80
2023/04/10 06:50:16;;;;;;;5.95;5.35;;;;;;;11.42;55.04;101971.28;4966106;28;20204;-78
2023/04/10 06:52:51;;;;;;;8.32;5.40;;;;;;;11.83;54.72;102027.84;4975821;28;20329;-80
2023/04/10 06:55:28;;;;;;;7.43;5.80;;;;;;;11.77;54.22;102019.34;4955571;28;20452;-80
2023/04/10 06:57:58;;;;;;;5.90;5.30;;;;;;;11.76;54.44;102017.63;4964138;28;20050;-80
2023/04/10 07:00:31;;;;;;;9.52;5.13;;;;;;;11.92;53.62;102017.41;4967817;28;20289;-81
2023/04/10 07:03:03;;;;;;;6.80;4.60;;;;;;;11.87;53.40;102005.38;4982347;28;20050;-81
2023/04/10 07:05:32;;;;;;;6.93;4.57;;;;;;;11.74;53.67;101965.47;4991075;28;20480;-82
2023/04/10 07:08:11;;;;;;;6.57;4.80;;;;;;;12.10;52.54;102028.53;5001129;28;20054;-81
2023/04/10 07:10:42;;;;;;;5.20;4.35;;;;;;;11.49;52.96;101929.16;4981885;28;20191;-81
2023/04/10 07:13:09;;;;;;;7.72;5.65;;;;;;;12.03;52.77;102003.31;4995469;28;20057;-80
2023/04/10 07:15:40;;;;;;;4.72;3.97;;;;;;;12.24;51.78;102022.19;4976308;28;20057;-82
2023/04/10 07:18:12;;;;;;;6.93;4.65;;;;;;;12.17;51.69;102013.81;5001486;28;20129;-81
2023/04/10 07:20:50;;;;;;;6.43;4.22;;;;;;;12.24;52.07;102032.84;4983639;28;20058;-82
2023/04/10 07:23:18;;;;;;;6.45;4.20;;;;;;;12.23;52.12;102017.81;4980934;28;20500;-82
2023/04/10 07:25:51;;;;;;;4.45;3.95;;;;;;;12.13;52.14;102004.34;4991697;28;20404;-83
2023/04/10 07:28:20;;;;;;;4.85;4.28;;;;;;;12.25;51.98;102023.03;4987125;28;20104;-82
2023/04/10 07:30:52;;;;;;;7.45;4.07;;;;;;;12.27;52.27;102026.44;4987164;28;20108;-83
2023/04/10 07:33:22;;;;;;;5.97;4.35;;;;;;;11.85;51.34;101946.09;4977947;28;20251;-82
2023/04/10 07:35:49;;;;;;;9.52;4.03;;;;;;;12.39;51.54;102020.22;4981929;28;20050;-82
2023/04/10 07:38:23;;;;;;;6.65;4.53;;;;;;;12.40;51.43;102033.44;5010177;28;20045;-82
2023/04/10 07:40:59;;;;;;;8.25;4.68;;;;;;;12.44;51.18;102012.72;4989038;28;20058;-80
2023/04/10 07:43:26;;;;;;;5.55;4.22;;;;;;;12.48;51.65;102030.19;5006306;28;20104;-81
2023/04/10 07:45:56;;;;;;;6.30;4.57;;;;;;;12.55;51.36;102030.59;4988162;28;20061;-82
2023/04/10 07:48:29;;;;;;;8.93;4.78;;;;;;;12.40;51.24;101979.28;4990202;28;20334;-81
2023/04/10 07:50:57;;;;;;;10.88;4.50;;;;;;;12.40;51.22;101989.94;4993980;28;20046;-82
2023/04/10 07:53:32;;;;;;;6.68;4.63;;;;;;;12.59;50.82;102016.91;4996005;28;20070;-80
2023/04/10 07:56:02;;;;;;;5.10;4.40;;;;;;;12.56;50.75;102009.16;4988930;28;20393;-82
2023/04/10 07:58:28;;;;;;;9.50;5.22;;;;;;;12.63;51.60;102022.03;4993384;28;20526;-85
2023/04/10 08:00:56;;;;;;;6.93;4.60;;;;;;;12.65;51.98;102015.63;4988465;28;20050;-82
2023/04/10 08:03:27;;;;;;;6.20;4.50;;;;;;;12.78;51.58;102010.19;4985645;28;20057;-82
2023/04/10 08:05:54;;;;;;;7.13;4.82;;;;;;;12.77;51.08;102022.69;4989368;28;20056;-82
2023/04/10 08:08:21;;;;;;;7.35;4.63;;;;;;;12.32;51.22;101941.75;4985538;28;20081;-81
2023/04/10 08:10:50;;;;;;;9.35;4.63;;;;;;;12.48;50.49;101966.28;4989502;28;20088;-82
2023/04/10 08:13:35;;;;;;;5.65;4.38;;;;;;;13.04;50.24;102032.22;4987327;28;20057;-82
2023/04/10 08:16:09;;;;;;;5.97;4.37;;;;;;;12.76;49.08;101980.16;4986637;28;20125;-82
2023/04/10 08:18:35;;;;;;;5.80;4.18;;;;;;;13.10;49.31;102033.53;4988389;28;20619;-82
2023/04/10 08:21:09;;;;;;;8.05;4.18;;;;;;;12.95;49.34;102009.75;4984455;28;20281;-81
2023/04/10 08:23:45;;;;;;;6.63;4.28;;;;;;;12.73;49.07;101961.75;4986752;28;20129;-81
2023/04/10 08:26:12;;;;;;;5.20;4.05;;;;;;;13.13;48.37;102036.84;4978819;28;20054;-82
2023/04/10 08:28:56;;;;;;;5.20;4.43;;;;;;;13.14;48.54;102022.53;4982575;28;20053;-81
2023/04/10 08:31:28;;;;;;;6.00;3.92;;;;;;;13.03;47.92;102012.69;4988029;28;20659;-82
2023/04/10 08:34:03;;;;;;;9.27;4.30;;;;;;;13.11;49.38;102040.59;4982940;28;20476;-82
2023/04/10 08:36:33;;;;;;;5.40;3.75;;;;;;;13.10;48.44;102036.22;4978048;28;20045;-82
2023/04/10 08:39:00;;;;;;;7.10;4.20;;;;;;;13.13;48.77;102041.28;4983000;28;20058;-82
2023/04/10 08:41:29;;;;;;;6.32;4.40;;;;;;;13.22;49.13;102035.25;4983511;28;20429;-81
2023/04/10 08:44:04;;;;;;;5.20;4.70;;;;;;;13.27;48.57;102017.13;4984341;28;20057;-81
2023/04/10 08:46:42;;;;;;;6.28;4.43;;;;;;;13.30;48.24;102011.56;4986261;28;20049;-80
2023/04/10 08:49:24;;;;;;;8.85;5.25;;;;;;;13.32;49.09;102036.28;4984583;28;20413;-80
2023/04/10 08:51:57;;;;;;;7.00;4.68;;;;;;;13.57;48.70;102051.22;4984165;28;20053;-81
2023/04/10 08:54:31;;;;;;;7.25;4.57;;;;;;;13.64;47.90;102019.56;4985326;28;20054;-81
2023/04/10 08:57:00;;;;;;;6.07;4.80;;;;;;;13.26;48.25;101980.72;4987107;28;20038;-80
2023/04/10 08:59:29;;;;;;;8.88;4.53;;;;;;;13.64;48.41;102040.91;4984717;28;20046;-81
2023/04/10 09:01:58;;;;;;;7.35;5.15;;;;;;;13.68;48.01;102050.38;4985167;28;20465;-81
2023/04/10 09:04:40;;;;;;;7.63;5.15;;;;;;;13.64;47.84;102022.22;4984863;28;20057;-82
2023/04/10 09:07:13;;;;;;;5.88;4.72;;;;;;;13.79;48.02;102029.03;4964553;28;20090;-83
2023/04/10 09:09:40;;;;;;;5.15;4.57;;;;;;;13.53;47.94;101971.53;4965517;28;20068;-81
2023/04/10 09:12:07;;;;;;;6.63;4.90;;;;;;;14.14;46.74;102041.34;4966923;28;20058;-82
2023/04/10 09:14:36;;;;;;;6.43;4.47;;;;;;;13.48;46.82;101939.91;4967706;28;20515;-81
2023/04/10 09:17:22;;;;;;;9.52;5.90;;;;;;;14.16;46.03;102023.38;4964095;28;20140;-81
2023/04/10 09:19:52;;;;;;;7.20;5.72;;;;;;;13.94;47.07;102004.75;4962087;28;20046;-81
2023/04/10 09:22:33;;;;;;;7.15;5.10;;;;;;;14.13;47.18;102039.66;4967126;28;20342;-79
2023/04/10 09:25:01;;;;;;;9.13;4.63;;;;;;;14.28;46.14;102045.56;4967599;28;20050;-82
2023/04/10 09:27:42;;;;;;;5.93;3.95;;;;;;;14.32;45.84;102041.66;4977593;28;20053;-82
2023/04/10 09:30:31;;;;;;;5.25;3.83;;;;;;;14.39;45.68;102037.50;4964315;28;20053;-82
2023/04/10 09:33:00;;;;;;;8.85;4.40;;;;;;;14.41;43.62;101968.75;4977818;28;20045;-82
2023/04/10 09:35:38;;;;;;;7.63;5.03;;;;;;;14.79;43.32;102012.00;4972656;28;20476;-82
2023/04/10 09:38:16;;;;;;;4.72;4.00;;;;;;;15.14;42.82;102025.88;4986521;28;20267;-81
2023/04/10 09:41:04;;;;;;;5.05;4.13;;;;;;;15.04;42.58;102006.25;4976862;28;20135;-80
2023/04/10 09:43:31;;;;;;;5.35;4.00;;;;;;;15.30;42.20;102013.88;4962148;28;20377;-83
2023/04/10 09:46:02;;;;;;;5.35;3.10;;;;;;;14.97;40.80;101935.56;4960835;28;20046;-82
2023/04/10 09:48:32;;;;;;;9.65;3.30;;;;;;;15.42;40.35;101977.16;4966937;28;20479;-80
2023/04/10 09:50:59;;;;;;;3.95;3.17;;;;;;;15.75;38.70;102021.53;4954866;28;20221;-80
2023/04/10 09:53:49;;;;;;;4.85;3.67;;;;;;;15.84;39.34;102028.75;4966587;28;20375;-81
2023/04/10 09:56:21;;;;;;;3.95;3.25;;;;;;;15.81;39.53;101984.38;4955735;28;20446;-81
2023/04/10 09:58:53;;;;;;;4.10;3.33;;;;;;;16.35;38.83;102022.38;4960788;28;20054;-81
2023/04/10 10:01:33;;;;;;;5.65;3.10;;;;;;;16.43;38.57;102027.03;4952635;28;20060;-82
2023/04/10 10:04:03;;;;;;;3.95;3.05;;;;;;;16.51;37.36;102010.28;4960351;28;20261;-83
2023/04/10 10:06:37;;;;;;;4.25;3.60;;;;;;;16.69;38.29;102010.41;4976875;28;20049;-81
2023/04/10 10:09:09;;;;;;;4.28;3.75;;;;;;;17.06;37.63;102021.25;4973906;28;20527;-81
2023/04/10 10:11:36;;;;;;;4.15;3.42;;;;;;;17.20;36.78;102020.78;4978299;28;20096;-82
2023/04/10 10:14:16;;;;;;;6.55;3.85;;;;;;;17.10;36.23;102003.88;4973495;28;20058;-81
2023/04/10 10:16:50;;;;;;;7.60;4.05;;;;;;;17.13;36.70;101998.22;4966400;28;20046;-81
2023/04/10 10:19:27;;;;;;;6.13;3.83;;;;;;;16.95;36.56;101946.31;4977856;28;20052;-80
2023/04/10 10:21:59;;;;;;;6.97;4.28;;;;;;;17.44;37.13;102016.75;4967391;28;20046;-81
2023/04/10 10:24:30;;;;;;;;;;;;;;;17.54;35.81;102008.66;4977043;28;20566;-81
2023/04/10 10:26:58;;;;;;;6.10;3.30;;;;;;;17.64;36.67;102004.94;4977506;28;19976;-82
2023/04/10 10:29:26;;;;;;;4.18;3.28;;;;;;;17.78;36.60;101992.84;4975822;28;20054;-83
2023/04/10 10:31:57;;;;;;;7.47;3.80;;;;;;;17.65;36.86;101971.72;4977260;28;20515;-82
2023/04/10 10:34:32;;;;;;;4.90;3.83;;;;;;;17.86;36.15;101997.50;4999496;28;20077;-81
2023/04/10 10:37:04;;;;;;;4.20;3.67;;;;;;;17.83;36.90;102011.25;4977124;28;20385;-82
2023/04/10 10:39:48;;;;;;;5.05;3.60;;;;;;;18.04;36.22;101995.72;4981830;28;20053;-82
2023/04/10 10:42:29;;;;;;;;;;;;;;;18.25;35.34;102008.00;4973982;28;20512;-82
2023/04/10 10:45:14;;;;;;;4.97;3.25;;;;;;;18.32;35.78;101995.63;4964296;28;20105;-83
2023/04/10 10:47:54;;;;;;;4.10;3.60;;;;;;;18.51;34.94;101989.25;4960553;28;20487;-82
2023/04/10 10:50:24;;;;;;;7.80;3.58;;;;;;;18.50;34.91;101969.59;4976827;28;20353;-81
2023/04/10 10:53:00;;;;;;;7.45;3.60;;;;;;;18.73;34.77;101985.25;4969338;28;20058;-81
2023/04/10 10:55:39;;;;;;;6.47;3.80;;;;;;;17.92;35.37;101847.31;4979002;28;20267;-83
2023/04/10 10:58:47;;;;;;;3.78;3.45;;;;;;;19.02;34.02;101971.53;4976174;28;20050;-81
2023/04/10 11:01:15;;;;;;;8.75;3.97;;;;;;;18.98;34.15;101957.56;4984704;28;20060;-80
2023/04/10 11:03:48;;;;;;;3.95;3.33;;;;;;;19.02;34.17;101941.06;4982898;28;20104;-79
2023/04/10 11:06:20;;;;;;;4.75;3.63;;;;;;;19.61;33.99;101968.94;4987230;28;20299;-81
2023/04/10 11:08:51;;;;;;;5.32;3.45;;;;;;;19.61;34.03;101956.34;4985366;28;20060;-80
2023/04/10 11:11:58;;;;;;;6.95;4.25;;;;;;;19.57;33.15;101921.81;4983102;28;20461;-81
2023/04/10 11:14:36;;;;;;;5.53;3.28;;;;;;;20.09;33.16;101970.13;4984161;28;20131;-80
2023/04/10 11:17:15;;;;;;;4.03;3.03;;;;;;;19.72;32.08;101917.50;4978046;28;20042;-82
2023/04/10 11:20:00;;;;;;;3.22;2.92;;;;;;;19.97;31.64;101925.63;4984751;28;20500;-82
2023/04/10 11:23:13;;;;;;;5.00;3.30;;;;;;;19.93;31.82;101953.91;4975881;28;20534;-81
2023/04/10 11:25:54;;;;;;;4.13;3.38;;;;;;;19.62;32.79;101958.00;4986197;28;20507;-80
2023/04/10 11:28:37;;;;;;;3.40;2.83;;;;;;;19.29;33.07;101951.66;4984748;28;20403;-82
2023/04/10 11:31:17;;;;;;;4.75;3.25;;;;;;;18.92;33.36;101928.56;4986249;28;20284;-80
2023/04/10 11:33:56;;;;;;;5.10;3.55;;;;;;;19.14;34.00;101953.25;4985384;28;20603;-81
2023/04/10 11:36:23;;;;;;;6.00;4.07;;;;;;;19.36;33.91;101947.31;4980258;28;20046;-82
2023/04/10 11:39:04;;;;;;;5.85;3.55;;;;;;;19.42;33.69;101948.53;4987584;28;20265;-82
2023/04/10 11:41:33;;;;;;;3.67;3.33;;;;;;;19.47;33.88;101940.81;4984123;28;20046;-80
2023/04/10 11:44:05;;;;;;;4.95;3.47;;;;;;;19.38;33.52;101869.91;4980190;28;20069;-81
2023/04/10 11:46:37;;;;;;;4.43;3.45;;;;;;;20.10;33.38;101931.41;4981203;28;20046;-81
2023/04/10 11:49:06;;;;;;;4.13;3.13;;;;;;;20.31;32.30;101938.97;4973891;28;20068;-81
2023/04/10 11:51:37;;;;;;;3.90;2.60;;;;;;;20.32;31.10;101891.28;4979270;28;20065;-81
2023/04/10 11:54:11;;;;;;;4.03;2.85;;;;;;;20.70;30.15;101922.97;4980925;28;20584;-81
2023/04/10 11:56:45;;;;;;;2.92;2.63;;;;;;;20.86;30.00;101932.06;4976723;28;20045;-80
2023/04/10 11:59:18;;;;;;;4.85;2.95;;;;;;;21.02;30.30;101913.13;4982975;28;20633;-81
2023/04/10 12:01:52;;;;;;;3.08;2.72;;;;;;;20.90;30.96;101872.16;4984089;28;20377;-82
2023/04/10 12:04:21;;;;;;;3.25;2.78;;;;;;;21.30;29.44;101909.97;4982425;28;20058;-81